India Meteorological Department
Airport METARs
Date : 21-04-2018
Sl. # Airport METAR
1 Allahabad VEAB 210530Z 32007KT 6000 FINE 37/12 Q1006 NOSIG=
2 Amritsar VIAR 210530Z 33014KT 5000 NSC 26/15 Q1013 NOSIG=
3 Baroda VABO 210530Z 28006KT 6000 NSC 33/18 Q1010 NOSIG=
4 Bhopal VABP 210500Z 01004KT 6000 NSC 34/08 Q1012 NOSIG=
5 Bhuntar VIBR 210530Z 00000KT 8000 FEW030 20/10 Q1015=
6 Delhi VIDP 210530Z 30008KT 3000 DU FEW100 31/11 Q1010 NOSIG=
7 Dehradun VIDN 210530Z 23004KT 5000 HZ NSC 29/12 Q1010=
8 Gaggal VIGG 210500Z 24003KT 6000 SCT035 24/09 Q1014=
9 Fursatganj VERB 210500Z 36004KT 5000 HZ NSC 35/11 Q1005=
10 Indore VAID 210500Z 34005KT 5000 HZ NSC 34/09 Q1012 NOSIG=
11 Jaipur VIJP 210400Z 35003KT 1500 R27/1600 DU NSC 30/M03 Q1012 NOSIG=
12 Lucknow VILK 210530Z 35009KT 3000 HZ NSC 36/16 Q1007 NOSIG=
13 Ludhiana VILD 210500Z 30007KT 5000 HZ NSC 30/09 Q1011 =
14 Ozar VAOZ 210500Z 31008KT 8000 FEW030 34/14 Q1013 NOSIG=
15 Pantnagar VIPT 210530Z 27004KT 4500 HZ NSC 31/14 Q1009 =
16 Raipur VERP 210530Z 27008KT 6000 NSC 38/14 Q1008 NOSIG=
17 Safdarjung VIDD 210530Z 29006KT 3000 HZ NSC 31/12 Q1009 NOSIG=
18 Shimla VISM 210530Z 23002KT 5000 HZ FEW030 20/07 Q1017=
19 Udaipur VAUD 210530Z 07002KT 3000 HZ NSC 31/00 Q1013 NOSIG=
20 Varanasi VEBN 210500Z 35007KT 3000 HZ NSC 35/20 Q1005 NOSIG =
21 Sri Nagar VISR 210530Z 06003KT 9999 SCT020 SCT030 11/06 Q1022 NOSIG=
22 Jammu VIJU 210530Z 27005KT 6000 SKC 26/09 Q1012 NOSIG=
23 Bagdogra VEBD 210430Z 09006KT 6000 FEW030 29/24 Q1007 NOSIG=
24 Pune VAPO 210530Z 34005KT 8000 NSC 36/12 Q1014 NOSIG=
25 Chandigarh VICG 210430Z 32008 6000 FINE SKC 28/10 Q1011 NOSIG=
26 Jamnagar VAJM 210430Z 32009KT 6000 FEW025 SCT025 30/25 Q1011 NOSIG=

 

--- End of List ---